Time;durP1;ratioP1;P1;durP2;ratioP2;P2;SDS_P1;SDS_P2;PMS_P1;PMS_P2;Temp;Humidity;BMP_temperature;BMP_pressure;BME280_temperature;BME280_humidity;BME280_pressure;Samples;Min_cycle;Max_cycle;Signal;HPM_P1;HPM_P2
2021/12/09 00:01:05;;;;;;;12.93;3.60;;;;;;;4.44;69.69;98503.97;5073024;28;20085;-63
2021/12/09 00:03:34;;;;;;;9.50;3.63;;;;;;;4.55;69.74;98498.69;5072659;28;20489;-63
2021/12/09 00:06:01;;;;;;;22.52;5.50;;;;;;;4.14;71.15;98504.47;5073148;28;20039;-63
2021/12/09 00:08:29;;;;;;;9.55;4.28;;;;;;;4.26;70.93;98501.63;5072294;28;20048;-61
2021/12/09 00:11:03;;;;;;;9.50;4.22;;;;;;;4.22;70.57;98498.63;5073839;28;20529;-60
2021/12/09 00:13:29;;;;;;;11.60;3.67;;;;;;;4.54;70.18;98499.75;5071057;28;20082;-64
2021/12/09 00:15:55;;;;;;;8.23;4.05;;;;;;;4.07;70.36;98500.09;5064975;28;20021;-63
2021/12/09 00:18:22;;;;;;;16.08;5.82;;;;;;;4.06;71.14;98501.16;5072599;28;20535;-62
2021/12/09 00:20:48;;;;;;;11.32;3.85;;;;;;;4.21;70.47;98505.06;5072734;28;20031;-63
2021/12/09 00:23:14;;;;;;;9.82;4.15;;;;;;;4.32;70.66;98509.53;5073701;28;20024;-60
2021/12/09 00:25:39;;;;;;;12.43;4.80;;;;;;;4.55;70.22;98510.31;5071807;28;20126;-62
2021/12/09 00:28:05;;;;;;;14.45;3.20;;;;;;;4.73;69.44;98508.28;5072955;28;20123;-63
2021/12/09 00:30:32;;;;;;;7.07;3.45;;;;;;;4.18;70.84;98516.38;5072167;28;20015;-63
2021/12/09 00:33:03;;;;;;;15.63;4.88;;;;;;;4.15;71.08;98514.22;5071807;28;20046;-63
2021/12/09 00:35:34;;;;;;;10.07;4.82;;;;;;;4.59;69.97;98504.38;5073788;28;20110;-63
2021/12/09 00:38:04;;;;;;;15.38;3.50;;;;;;;4.54;69.65;98511.34;5072538;28;20043;-63
2021/12/09 00:40:30;;;;;;;14.77;3.97;;;;;;;4.92;68.66;98510.63;5073473;28;20033;-60
2021/12/09 00:43:09;;;;;;;12.23;4.43;;;;;;;4.51;70.21;98514.59;5072451;28;20683;-63
2021/12/09 00:45:35;;;;;;;10.13;4.60;;;;;;;4.99;68.63;98518.47;5074132;28;20028;-63
2021/12/09 00:48:00;;;;;;;9.65;4.97;;;;;;;4.77;69.02;98514.81;5072878;28;20105;-63
2021/12/09 00:50:26;;;;;;;5.93;2.60;;;;;;;5.18;67.49;98516.19;5072504;28;20032;-63
2021/12/09 00:52:51;;;;;;;8.48;3.83;;;;;;;4.94;67.72;98513.88;5073700;28;20111;-65
2021/12/09 00:55:17;;;;;;;8.98;3.22;;;;;;;4.94;68.16;98511.16;5071347;28;20430;-62
2021/12/09 00:57:43;;;;;;;7.50;2.88;;;;;;;5.21;67.43;98504.84;5073319;28;20027;-64
2021/12/09 01:00:14;;;;;;;10.85;4.80;;;;;;;5.78;65.25;98508.94;5070747;28;20550;-64
2021/12/09 01:02:39;;;;;;;11.75;4.47;;;;;;;5.31;66.44;98514.13;5072361;28;20047;-62
2021/12/09 01:05:06;;;;;;;10.38;4.00;;;;;;;4.84;68.72;98511.88;5074309;28;20482;-63
2021/12/09 01:07:34;;;;;;;8.02;3.47;;;;;;;5.60;66.67;98516.44;5076800;28;20233;-61
2021/12/09 01:09:59;;;;;;;6.88;3.83;;;;;;;5.20;66.41;98516.75;5076071;28;20040;-62
2021/12/09 01:12:25;;;;;;;10.63;3.72;;;;;;;5.19;66.84;98522.41;5075141;28;20391;-63
2021/12/09 01:14:50;;;;;;;9.70;3.83;;;;;;;4.63;68.65;98517.13;5076647;28;20361;-62
2021/12/09 01:17:16;;;;;;;10.32;4.15;;;;;;;5.14;68.08;98532.13;5074302;28;20021;-62
2021/12/09 01:19:41;;;;;;;8.00;3.65;;;;;;;4.77;68.98;98516.69;5076717;28;20070;-62
2021/12/09 01:22:07;;;;;;;6.32;3.35;;;;;;;4.05;71.30;98523.81;5074714;28;20124;-64
2021/12/09 01:24:32;;;;;;;10.05;4.13;;;;;;;4.17;70.88;98526.38;5075850;28;20142;-62
2021/12/09 01:26:58;;;;;;;10.77;3.70;;;;;;;3.78;72.09;98535.38;5075723;28;20020;-61
2021/12/09 01:29:34;;;;;;;9.63;3.63;;;;;;;4.19;70.37;98526.91;5073283;28;20107;-61
2021/12/09 01:32:02;;;;;;;9.27;3.75;;;;;;;3.85;72.01;98524.38;5075956;28;20126;-62
2021/12/09 01:34:28;;;;;;;9.40;3.28;;;;;;;3.74;72.43;98529.63;5073898;28;20479;-61
2021/12/09 01:36:53;;;;;;;9.13;3.22;;;;;;;3.57;72.93;98539.66;5075523;28;20016;-63
2021/12/09 01:39:21;;;;;;;10.15;4.90;;;;;;;3.62;73.76;98547.81;5073784;28;20443;-62
2021/12/09 01:41:46;;;;;;;12.93;4.00;;;;;;;3.66;72.30;98548.13;5074961;28;20031;-60
2021/12/09 01:44:12;;;;;;;9.90;4.35;;;;;;;3.77;73.23;98546.38;5074533;28;20020;-63
2021/12/09 01:46:38;;;;;;;7.47;4.05;;;;;;;3.95;72.12;98545.25;5077224;28;20066;-62
2021/12/09 01:49:03;;;;;;;10.68;4.65;;;;;;;3.70;72.61;98554.66;5077783;28;20394;-62
2021/12/09 01:51:29;;;;;;;8.20;3.92;;;;;;;3.61;72.86;98551.56;5076421;28;20649;-62
2021/12/09 01:53:54;;;;;;;6.68;3.03;;;;;;;3.83;71.68;98559.69;5077742;28;20455;-63
2021/12/09 01:56:23;;;;;;;11.02;4.18;;;;;;;3.97;71.87;98551.22;5076479;28;20100;-63
2021/12/09 01:58:51;;;;;;;10.55;3.83;;;;;;;4.16;70.61;98553.59;5076864;28;20028;-62
2021/12/09 02:01:17;;;;;;;13.88;4.95;;;;;;;4.06;71.09;98555.13;5077613;28;20122;-63
2021/12/09 02:03:42;;;;;;;7.82;4.00;;;;;;;4.11;72.22;98553.56;5077066;28;20032;-62
2021/12/09 02:06:08;;;;;;;12.02;4.10;;;;;;;4.35;70.95;98558.66;5077769;28;20886;-63
2021/12/09 02:08:33;;;;;;;13.40;3.55;;;;;;;4.51;70.69;98556.94;5076631;28;20024;-63
2021/12/09 02:10:59;;;;;;;14.68;4.50;;;;;;;4.44;69.50;98559.84;5076929;28;20115;-64
2021/12/09 02:13:24;;;;;;;8.35;5.20;;;;;;;3.90;71.47;98564.09;5075461;28;20666;-62
2021/12/09 02:15:54;;;;;;;9.20;4.10;;;;;;;4.37;70.78;98556.53;5076204;28;20115;-63
2021/12/09 02:18:21;;;;;;;12.85;4.00;;;;;;;3.95;71.06;98562.25;5075710;28;20085;-64
2021/12/09 02:20:46;;;;;;;16.55;4.95;;;;;;;4.25;70.52;98554.78;5077251;28;20020;-62
2021/12/09 02:23:15;;;;;;;11.13;3.80;;;;;;;3.93;71.60;98563.56;5077788;28;20035;-63
2021/12/09 02:25:44;;;;;;;13.65;4.95;;;;;;;3.88;71.69;98560.81;5075480;28;20093;-63
2021/12/09 02:28:12;;;;;;;13.65;4.28;;;;;;;3.80;71.81;98562.88;5076276;28;20115;-63
2021/12/09 02:30:38;;;;;;;12.35;4.38;;;;;;;3.63;72.74;98549.44;5075726;28;20099;-62
2021/12/09 02:33:03;;;;;;;11.77;5.15;;;;;;;3.92;71.18;98551.16;5077716;28;20029;-63
2021/12/09 02:35:28;;;;;;;11.50;4.50;;;;;;;3.60;72.92;98549.94;5076017;28;20020;-63
2021/12/09 02:37:54;;;;;;;8.63;3.97;;;;;;;3.62;72.38;98550.53;5077041;28;20016;-63
2021/12/09 02:40:20;;;;;;;11.18;5.15;;;;;;;3.54;73.07;98549.03;5077482;28;20034;-62
2021/12/09 02:42:47;;;;;;;10.13;4.28;;;;;;;3.70;71.95;98550.06;5075126;28;20013;-62
2021/12/09 02:45:12;;;;;;;11.75;4.18;;;;;;;3.65;73.06;98546.50;5076773;28;20039;-62
2021/12/09 02:47:38;;;;;;;12.75;5.38;;;;;;;3.34;73.68;98549.56;5075361;28;20024;-62
2021/12/09 02:50:05;;;;;;;7.97;4.63;;;;;;;3.40;73.96;98550.47;5076889;28;20121;-63
2021/12/09 02:52:30;;;;;;;11.18;4.47;;;;;;;3.18;74.06;98548.50;5075431;28;20074;-63
2021/12/09 02:54:57;;;;;;;9.15;4.18;;;;;;;3.08;74.92;98549.16;5075135;28;20104;-61
2021/12/09 02:57:23;;;;;;;14.68;5.03;;;;;;;3.38;74.29;98548.81;5075663;28;20122;-63
2021/12/09 02:59:48;;;;;;;12.00;4.45;;;;;;;3.57;72.66;98556.66;5075457;28;20449;-63
2021/12/09 03:02:13;;;;;;;12.15;3.90;;;;;;;3.61;73.44;98540.78;5076961;28;20024;-62
2021/12/09 03:04:38;;;;;;;11.73;4.53;;;;;;;3.52;73.89;98548.47;5075014;28;20024;-63
2021/12/09 03:07:18;;;;;;;10.15;3.30;;;;;;;3.37;73.53;98541.81;5076284;28;20032;-63
2021/12/09 03:09:49;;;;;;;11.55;5.03;;;;;;;3.49;73.49;98539.03;5075377;28;20418;-62
2021/12/09 03:12:27;;;;;;;12.45;4.35;;;;;;;3.47;73.95;98535.75;5075702;28;20497;-62
2021/12/09 03:15:07;;;;;;;17.17;5.38;;;;;;;3.68;73.47;98546.00;5077501;28;20048;-63
2021/12/09 03:17:33;;;;;;;10.23;4.25;;;;;;;3.66;73.83;98550.84;5075497;28;20090;-63
2021/12/09 03:19:59;;;;;;;10.88;4.25;;;;;;;3.78;72.34;98553.41;5076072;28;20039;-62
2021/12/09 03:22:25;;;;;;;16.45;4.65;;;;;;;3.85;73.04;98556.72;5074133;28;20028;-62
2021/12/09 03:24:50;;;;;;;8.70;3.20;;;;;;;3.82;72.27;98558.03;5075717;28;20088;-63
2021/12/09 03:27:16;;;;;;;11.27;4.53;;;;;;;4.07;71.64;98545.94;5074737;28;20063;-63
2021/12/09 03:29:42;;;;;;;7.32;3.58;;;;;;;3.73;72.66;98551.44;5075193;28;20031;-63
2021/12/09 03:32:11;;;;;;;14.18;5.30;;;;;;;3.19;73.72;98550.16;5074472;28;20067;-64
2021/12/09 03:34:39;;;;;;;24.90;6.28;;;;;;;3.36;73.57;98555.53;5075092;28;20043;-61
2021/12/09 03:37:08;;;;;;;12.35;4.88;;;;;;;3.35;73.35;98549.34;5075659;28;20471;-62
2021/12/09 03:39:36;;;;;;;9.63;4.85;;;;;;;3.79;73.02;98550.47;5074051;28;20020;-61
2021/12/09 03:42:03;;;;;;;8.77;4.82;;;;;;;3.84;71.27;98555.13;5074596;28;20633;-63
2021/12/09 03:44:29;;;;;;;18.92;3.72;;;;;;;3.39;73.28;98555.03;5073500;28;20029;-64
2021/12/09 03:46:58;;;;;;;12.15;4.57;;;;;;;3.98;72.24;98550.16;5075676;28;20024;-62
2021/12/09 03:49:24;;;;;;;11.93;4.45;;;;;;;3.49;72.95;98552.50;5076095;28;20032;-63
2021/12/09 03:51:50;;;;;;;12.77;5.38;;;;;;;3.10;74.54;98553.25;5073380;28;20431;-61
2021/12/09 03:54:16;;;;;;;11.13;4.40;;;;;;;3.36;73.43;98553.66;5076133;28;20040;-63
2021/12/09 03:56:42;;;;;;;10.68;4.03;;;;;;;3.40;73.66;98550.47;5074887;28;20481;-61
2021/12/09 03:59:11;;;;;;;9.30;4.78;;;;;;;3.37;73.85;98552.59;5075481;28;20107;-62
2021/12/09 04:01:38;;;;;;;11.73;4.53;;;;;;;3.59;72.49;98554.53;5074801;28;20028;-63
2021/12/09 04:04:05;;;;;;;11.98;4.63;;;;;;;3.70;71.72;98555.47;5075107;28;20024;-63
2021/12/09 04:06:31;;;;;;;13.55;5.35;;;;;;;3.45;72.75;98551.34;5074558;28;20106;-63
2021/12/09 04:08:58;;;;;;;12.18;4.63;;;;;;;3.70;72.30;98547.38;5074441;28;20485;-61
2021/12/09 04:11:23;;;;;;;10.90;5.97;;;;;;;3.68;71.65;98548.69;5075856;28;20063;-63
2021/12/09 04:13:49;;;;;;;10.98;5.00;;;;;;;3.45;72.81;98558.63;5073778;28;20510;-62
2021/12/09 04:16:14;;;;;;;8.60;3.72;;;;;;;3.45;73.37;98558.63;5075698;28;20025;-63
2021/12/09 04:18:41;;;;;;;11.00;4.18;;;;;;;2.86;75.62;98560.66;5074107;28;20028;-63
2021/12/09 04:21:07;;;;;;;6.82;3.97;;;;;;;3.26;74.02;98556.19;5075270;28;20081;-63
2021/12/09 04:23:34;;;;;;;19.73;5.75;;;;;;;3.21;74.42;98559.63;5074689;28;20071;-64
2021/12/09 04:26:00;;;;;;;13.43;4.22;;;;;;;3.46;72.91;98560.25;5074469;28;20040;-62
2021/12/09 04:28:25;;;;;;;9.20;4.20;;;;;;;3.40;74.24;98562.03;5074081;28;20087;-62
2021/12/09 04:30:51;;;;;;;9.25;4.63;;;;;;;3.35;73.80;98560.13;5073214;28;20040;-62
2021/12/09 04:33:16;;;;;;;8.38;3.75;;;;;;;3.64;71.89;98558.34;5075296;28;20086;-63
2021/12/09 04:35:42;;;;;;;15.23;5.50;;;;;;;3.76;72.32;98569.84;5073771;28;20447;-63
2021/12/09 04:38:07;;;;;;;9.52;4.72;;;;;;;3.41;72.59;98560.19;5075282;28;20032;-63
2021/12/09 04:40:33;;;;;;;13.68;5.55;;;;;;;3.34;73.76;98563.84;5072542;28;20471;-63
2021/12/09 04:43:00;;;;;;;13.13;4.15;;;;;;;3.35;73.58;98562.81;5074282;28;20042;-63
2021/12/09 04:45:26;;;;;;;9.73;4.57;;;;;;;3.32;74.52;98565.16;5075703;28;20093;-63
2021/12/09 04:47:52;;;;;;;12.02;4.20;;;;;;;3.26;73.71;98562.41;5073710;28;20046;-63
2021/12/09 04:50:17;;;;;;;14.90;5.05;;;;;;;2.85;75.36;98567.91;5074755;28;20497;-63
2021/12/09 04:52:43;;;;;;;15.73;5.22;;;;;;;3.45;73.94;98564.84;5073079;28;20127;-63
2021/12/09 04:55:09;;;;;;;14.55;4.93;;;;;;;2.90;74.87;98570.72;5076208;28;20059;-62
2021/12/09 04:57:35;;;;;;;9.07;4.68;;;;;;;2.67;75.93;98567.09;5072331;28;20111;-63
2021/12/09 05:00:05;;;;;;;14.30;5.88;;;;;;;2.78;75.48;98573.47;5074673;28;20390;-62
2021/12/09 05:05:14;;;;;;;22.98;5.60;;;;;;;2.53;76.46;98584.59;5073884;28;20565;-62
2021/12/09 05:07:39;;;;;;;12.63;4.72;;;;;;;2.67;76.50;98572.47;5075580;28;20066;-62
2021/12/09 05:10:05;;;;;;;12.07;3.85;;;;;;;2.71;76.31;98585.44;5072022;28;20383;-62
2021/12/09 05:12:31;;;;;;;15.18;4.40;;;;;;;2.73;75.96;98586.00;5074537;28;20035;-63
2021/12/09 05:14:56;;;;;;;11.32;4.95;;;;;;;2.59;76.81;98597.09;5074224;28;20813;-63
2021/12/09 05:17:22;;;;;;;12.25;5.32;;;;;;;3.22;74.38;98596.28;5074100;28;20364;-63
2021/12/09 05:19:47;;;;;;;8.65;4.35;;;;;;;2.96;75.33;98595.84;5074188;28;20039;-62
2021/12/09 05:22:13;;;;;;;23.23;5.65;;;;;;;2.83;75.80;98594.28;5073639;28;20016;-63
2021/12/09 05:24:40;;;;;;;10.02;4.05;;;;;;;2.92;75.75;98592.00;5074599;28;20029;-64
2021/12/09 05:27:06;;;;;;;12.32;5.65;;;;;;;2.86;76.04;98604.56;5073380;28;20109;-61
2021/12/09 05:29:38;;;;;;;11.23;4.22;;;;;;;2.89;75.04;98596.00;5074497;28;20029;-62
2021/12/09 05:32:08;;;;;;;7.72;4.00;;;;;;;2.78;75.32;98604.97;5072715;28;20501;-60
2021/12/09 05:34:39;;;;;;;9.25;3.88;;;;;;;2.43;77.25;98612.94;5073495;28;20025;-63
2021/12/09 05:37:07;;;;;;;11.73;4.13;;;;;;;2.69;75.45;98612.59;5074013;28;20039;-63
2021/12/09 05:39:33;;;;;;;14.02;4.63;;;;;;;2.82;75.94;98624.97;5072610;28;20035;-63
2021/12/09 05:41:59;;;;;;;11.15;4.20;;;;;;;3.12;74.84;98613.09;5074502;28;20089;-61
2021/12/09 05:44:24;;;;;;;12.52;4.53;;;;;;;2.50;76.50;98626.25;5072216;28;20024;-62
2021/12/09 05:46:50;;;;;;;12.93;6.05;;;;;;;2.97;76.44;98618.22;5074098;28;20103;-63
2021/12/09 05:49:16;;;;;;;16.77;5.22;;;;;;;2.78;75.70;98615.72;5073083;28;20024;-62
2021/12/09 05:51:43;;;;;;;9.60;4.45;;;;;;;2.72;75.59;98622.91;5077676;28;20440;-63
2021/12/09 05:54:09;;;;;;;15.38;4.90;;;;;;;2.75;75.39;98626.97;5076646;28;20487;-62
2021/12/09 05:56:35;;;;;;;11.80;4.68;;;;;;;2.94;74.88;98618.69;5076925;28;20027;-63
2021/12/09 05:59:01;;;;;;;10.95;5.28;;;;;;;2.85;75.88;98629.06;5059456;28;20066;-63
2021/12/09 06:01:26;;;;;;;11.00;5.22;;;;;;;2.91;75.07;98634.28;5075896;28;20051;-63
2021/12/09 06:03:52;;;;;;;20.30;5.35;;;;;;;2.87;75.10;98624.22;5078459;28;20178;-63
2021/12/09 06:06:18;;;;;;;9.98;4.63;;;;;;;2.83;75.76;98621.19;5076573;28;20606;-63
2021/12/09 06:08:43;;;;;;;9.77;3.80;;;;;;;2.63;76.66;98635.91;5078158;28;20034;-62
2021/12/09 06:11:10;;;;;;;12.98;5.22;;;;;;;2.62;76.58;98626.22;5072718;28;20037;-62
2021/12/09 06:13:37;;;;;;;6.72;3.75;;;;;;;2.80;75.43;98630.59;5076723;28;20470;-62
2021/12/09 06:16:04;;;;;;;14.88;4.60;;;;;;;3.00;74.99;98628.50;5077404;28;20073;-63
2021/12/09 06:18:29;;;;;;;11.05;4.10;;;;;;;2.82;75.33;98632.22;5075547;28;20483;-63
2021/12/09 06:20:55;;;;;;;12.48;4.40;;;;;;;2.78;75.77;98639.97;5077640;28;20101;-63
2021/12/09 06:23:20;;;;;;;11.65;3.88;;;;;;;3.32;74.98;98627.13;5075321;28;20078;-63
2021/12/09 06:25:46;;;;;;;15.90;5.20;;;;;;;3.94;72.55;98629.94;5077576;28;20066;-63
2021/12/09 06:28:11;;;;;;;8.05;3.80;;;;;;;3.37;74.22;98628.03;5076058;28;20468;-63
2021/12/09 06:30:37;;;;;;;8.90;4.53;;;;;;;3.29;74.26;98627.63;5076657;28;20425;-62
2021/12/09 06:33:05;;;;;;;14.60;4.47;;;;;;;3.25;74.67;98643.47;5077020;28;20039;-63
2021/12/09 06:35:32;;;;;;;14.80;3.90;;;;;;;3.27;74.70;98638.66;5075352;28;20023;-62
2021/12/09 06:37:57;;;;;;;10.63;4.80;;;;;;;3.84;72.59;98639.50;5076670;28;20024;-62
2021/12/09 06:40:24;;;;;;;9.88;4.10;;;;;;;3.80;72.27;98641.09;5075713;28;20036;-63
2021/12/09 06:42:51;;;;;;;17.23;5.00;;;;;;;3.15;73.82;98644.91;5077067;28;20028;-62
2021/12/09 06:45:18;;;;;;;10.15;4.45;;;;;;;3.33;73.96;98637.69;5075843;28;20418;-62
2021/12/09 06:47:45;;;;;;;14.80;4.55;;;;;;;3.88;71.53;98639.84;5076725;28;20039;-63
2021/12/09 06:50:14;;;;;;;11.65;4.97;;;;;;;3.43;73.28;98637.03;5076445;28;20414;-63
2021/12/09 06:52:40;;;;;;;12.98;3.72;;;;;;;3.89;72.18;98637.94;5076033;28;20048;-63
2021/12/09 06:55:09;;;;;;;7.90;3.85;;;;;;;3.54;73.45;98631.81;5057385;28;20029;-62
2021/12/09 06:57:35;;;;;;;9.23;4.57;;;;;;;3.78;72.04;98632.44;5074655;28;20540;-63
2021/12/09 07:00:00;;;;;;;10.82;4.20;;;;;;;3.55;73.07;98631.53;5075228;28;20097;-61
2021/12/09 07:02:26;;;;;;;10.38;4.40;;;;;;;2.89;75.53;98627.47;5074766;28;20020;-62
2021/12/09 07:04:51;;;;;;;12.00;4.07;;;;;;;3.07;74.53;98631.84;5076669;28;20020;-61
2021/12/09 07:07:16;;;;;;;14.57;5.72;;;;;;;3.19;74.15;98630.97;5076216;28;20029;-63
2021/12/09 07:09:42;;;;;;;12.35;4.45;;;;;;;2.99;74.54;98643.03;5076250;28;20042;-63
2021/12/09 07:12:08;;;;;;;7.90;3.65;;;;;;;3.07;74.70;98639.91;5076439;28;20031;-63
2021/12/09 07:14:34;;;;;;;14.82;5.65;;;;;;;2.65;76.02;98647.25;5074842;28;20020;-62
2021/12/09 07:17:00;;;;;;;16.17;4.53;;;;;;;2.85;75.04;98643.31;5076825;28;20028;-63
2021/12/09 07:19:25;;;;;;;12.07;4.30;;;;;;;2.71;75.14;98656.25;5074631;28;20036;-62
2021/12/09 07:21:50;;;;;;;18.23;5.28;;;;;;;2.63;76.06;98662.84;5058603;28;20112;-62
2021/12/09 07:24:16;;;;;;;10.90;4.60;;;;;;;2.83;76.00;98650.81;5074998;28;20550;-63
2021/12/09 07:26:41;;;;;;;8.38;3.58;;;;;;;2.85;75.17;98659.47;5075791;28;20024;-63
2021/12/09 07:29:07;;;;;;;10.85;4.05;;;;;;;2.77;75.52;98667.91;5075279;28;20063;-63
2021/12/09 07:31:34;;;;;;;8.55;3.80;;;;;;;3.01;74.35;98657.06;5074670;28;20458;-62
2021/12/09 07:34:00;;;;;;;14.30;4.80;;;;;;;2.88;75.30;98669.78;5075504;28;20032;-63
2021/12/09 07:36:26;;;;;;;7.90;3.45;;;;;;;3.82;72.28;98662.41;5073964;28;20030;-60
2021/12/09 07:38:52;;;;;;;8.32;3.97;;;;;;;3.36;73.41;98655.22;5074249;28;20517;-63
2021/12/09 07:41:17;;;;;;;11.88;4.68;;;;;;;3.15;73.44;98663.75;5071155;28;20032;-61
2021/12/09 07:43:43;;;;;;;9.00;4.38;;;;;;;3.02;73.80;98664.91;5074115;28;20085;-62
2021/12/09 07:46:09;;;;;;;11.73;4.18;;;;;;;3.50;74.15;98663.78;5075105;28;20052;-62
2021/12/09 07:48:35;;;;;;;13.07;3.90;;;;;;;3.57;73.22;98664.47;5072345;28;20044;-62
2021/12/09 07:51:00;;;;;;;23.52;5.47;;;;;;;3.32;73.62;98668.38;5071662;28;20145;-62
2021/12/09 07:53:26;;;;;;;13.93;4.22;;;;;;;3.48;73.97;98665.91;5073498;28;20024;-62
2021/12/09 07:55:53;;;;;;;9.45;4.15;;;;;;;2.90;75.18;98682.97;5076284;28;20478;-63
2021/12/09 07:58:19;;;;;;;9.95;3.85;;;;;;;3.09;75.35;98675.50;5071374;28;20039;-63
2021/12/09 08:00:44;;;;;;;17.05;5.18;;;;;;;3.41;73.83;98668.78;5075295;28;20379;-63
2021/12/09 08:03:10;;;;;;;11.55;4.03;;;;;;;3.35;73.96;98667.06;5073283;28;20028;-63
2021/12/09 08:08:39;;;;;;;16.27;5.10;;;;;;;3.08;75.21;98681.16;5074611;28;20078;-62
2021/12/09 08:11:06;;;;;;;13.77;4.45;;;;;;;2.96;74.99;98691.97;5073209;28;20071;-62
2021/12/09 08:13:32;;;;;;;8.75;3.83;;;;;;;3.45;74.20;98685.28;5074231;28;20449;-63
2021/12/09 08:15:58;;;;;;;11.82;5.03;;;;;;;3.06;74.23;98685.94;5073515;28;20044;-63
2021/12/09 08:18:33;;;;;;;13.85;5.00;;;;;;;3.21;74.36;98697.03;5074759;28;20040;-63
2021/12/09 08:21:00;;;;;;;14.30;4.88;;;;;;;3.29;74.36;98690.41;5074106;28;20394;-63
2021/12/09 08:23:26;;;;;;;8.70;3.30;;;;;;;2.98;75.54;98689.84;5071904;28;20028;-63
2021/12/09 08:25:54;;;;;;;10.82;4.55;;;;;;;2.78;76.15;98688.41;5074284;28;20036;-62
2021/12/09 08:28:19;;;;;;;14.20;4.35;;;;;;;2.54;76.88;98696.56;5051930;28;20040;-63
2021/12/09 08:30:46;;;;;;;8.30;3.95;;;;;;;2.63;76.88;98702.38;5074724;28;20032;-63
2021/12/09 08:33:12;;;;;;;9.32;3.60;;;;;;;2.60;76.73;98692.09;5074404;28;20512;-63
2021/12/09 08:35:38;;;;;;;27.45;6.03;;;;;;;2.71;76.64;98695.78;5074387;28;20791;-62
2021/12/09 08:38:05;;;;;;;16.17;4.15;;;;;;;2.88;75.86;98691.31;5075339;28;20024;-63
2021/12/09 08:40:31;;;;;;;12.60;5.15;;;;;;;3.17;74.78;98681.56;5073225;28;20112;-63
2021/12/09 08:42:57;;;;;;;8.90;4.15;;;;;;;3.22;75.34;98695.94;5074660;28;20238;-62
2021/12/09 08:45:22;;;;;;;10.23;3.65;;;;;;;3.09;75.05;98702.44;5074164;28;20020;-63
2021/12/09 08:47:48;;;;;;;14.70;4.70;;;;;;;3.04;75.36;98705.06;5075345;28;20360;-64
2021/12/09 08:50:19;;;;;;;10.07;4.45;;;;;;;2.89;75.57;98701.00;5073398;28;20123;-63
2021/12/09 08:52:45;;;;;;;15.73;4.35;;;;;;;2.77;76.18;98705.59;5074939;28;20443;-63
2021/12/09 08:55:11;;;;;;;11.43;4.15;;;;;;;2.78;76.65;98720.72;5073713;28;20064;-63
2021/12/09 08:57:37;;;;;;;11.82;4.22;;;;;;;3.18;75.10;98720.91;5073321;28;20052;-63
2021/12/09 09:00:12;;;;;;;12.05;4.40;;;;;;;3.26;74.79;98721.34;5074222;28;20039;-65
2021/12/09 09:02:46;;;;;;;11.35;4.80;;;;;;;2.97;76.42;98712.47;5072840;28;20483;-63
2021/12/09 09:05:13;;;;;;;;;;;;;;;3.32;74.44;98716.88;5074148;28;20031;-63
2021/12/09 09:07:43;;;;;;;9.95;3.47;;;;;;;3.12;74.75;98718.13;5073261;28;20021;-63
2021/12/09 09:10:11;;;;;;;9.93;4.38;;;;;;;3.00;76.08;98720.88;5074087;28;20039;-63
2021/12/09 09:12:37;;;;;;;9.10;3.92;;;;;;;3.25;75.76;98732.38;5074313;28;20318;-64
2021/12/09 09:15:06;;;;;;;24.65;3.97;;;;;;;3.43;74.87;98741.31;5073809;28;20028;-62
2021/12/09 09:17:31;;;;;;;9.25;4.97;;;;;;;3.29;75.34;98725.44;5074741;28;20111;-63
2021/12/09 09:19:56;;;;;;;13.60;4.30;;;;;;;3.02;76.24;98728.72;5072959;28;20104;-64
2021/12/09 09:22:21;;;;;;;11.20;4.47;;;;;;;3.23;75.40;98731.81;5073820;28;20483;-63
2021/12/09 09:24:47;;;;;;;13.00;5.15;;;;;;;3.31;75.25;98731.41;5072945;28;20133;-65
2021/12/09 09:27:12;;;;;;;8.32;3.70;;;;;;;3.23;75.66;98737.19;5078554;28;20044;-65
2021/12/09 09:29:40;;;;;;;11.48;4.70;;;;;;;3.36;75.40;98734.19;5076980;28;20491;-64
2021/12/09 09:32:07;;;;;;;10.43;4.05;;;;;;;3.57;74.25;98718.38;5077617;28;20030;-62
2021/12/09 09:34:32;;;;;;;14.10;5.78;;;;;;;3.56;74.06;98732.09;5078844;28;20032;-63
2021/12/09 09:36:57;;;;;;;10.70;4.32;;;;;;;3.43;74.91;98727.81;5077016;28;20192;-61
2021/12/09 09:39:28;;;;;;;14.73;4.45;;;;;;;3.86;73.21;98725.56;5077190;28;20512;-64
2021/12/09 09:42:00;;;;;;;18.17;4.40;;;;;;;3.35;74.89;98731.75;5075719;28;20461;-64
2021/12/09 09:44:34;;;;;;;8.77;4.20;;;;;;;3.08;75.96;98725.06;5077711;28;20949;-63
2021/12/09 09:47:01;;;;;;;;;;;;;;;3.57;74.96;98722.94;5077967;28;20063;-65
2021/12/09 09:49:28;;;;;;;11.30;4.82;;;;;;;3.53;74.81;98730.69;5076790;28;20331;-65
2021/12/09 09:51:57;;;;;;;7.68;4.22;;;;;;;3.78;73.51;98724.09;5077153;28;20040;-66
2021/12/09 09:54:23;;;;;;;9.68;4.53;;;;;;;3.62;73.85;98731.94;5076146;28;20450;-64
2021/12/09 09:56:49;;;;;;;11.00;4.15;;;;;;;3.60;74.49;98725.16;5078433;28;20107;-64
2021/12/09 09:59:17;;;;;;;9.68;5.47;;;;;;;3.71;73.67;98734.22;5074657;28;20063;-65
2021/12/09 10:01:45;;;;;;;12.35;5.90;;;;;;;3.32;74.76;98738.41;5078299;28;20461;-64
2021/12/09 10:04:20;;;;;;;13.65;5.45;;;;;;;3.33;74.66;98733.84;5076972;28;20074;-64
2021/12/09 10:06:46;;;;;;;11.57;5.05;;;;;;;3.53;74.94;98729.88;5075121;28;20479;-63
2021/12/09 10:09:14;;;;;;;11.85;4.97;;;;;;;3.44;75.16;98732.16;5077035;28;20027;-64
2021/12/09 10:11:40;;;;;;;11.82;5.55;;;;;;;3.59;74.42;98724.34;5073276;28;20016;-64
2021/12/09 10:14:11;;;;;;;11.88;5.53;;;;;;;3.45;74.95;98736.50;5058132;28;20484;-63
2021/12/09 10:16:38;;;;;;;19.83;5.97;;;;;;;3.60;76.43;98739.44;5075497;28;20042;-65
2021/12/09 10:19:15;;;;;;;14.70;5.50;;;;;;;3.58;75.37;98736.16;5077080;28;20024;-63
2021/12/09 10:21:41;;;;;;;11.18;4.60;;;;;;;3.90;73.50;98725.88;5077060;28;20050;-64
2021/12/09 10:24:08;;;;;;;8.35;3.63;;;;;;;3.99;73.56;98734.41;5069823;28;20012;-66
2021/12/09 10:26:40;;;;;;;12.32;4.95;;;;;;;3.78;74.90;98724.09;5077577;28;20029;-63
2021/12/09 10:29:15;;;;;;;13.85;4.68;;;;;;;3.60;74.79;98734.03;5074941;28;20056;-64
2021/12/09 10:31:50;;;;;;;30.40;7.13;;;;;;;4.22;72.34;98724.44;5058759;28;20032;-65
2021/12/09 10:34:40;;;;;;;11.65;5.38;;;;;;;4.13;73.43;98718.69;5076301;28;20036;-64
2021/12/09 10:37:26;;;;;;;11.13;5.80;;;;;;;3.73;73.65;98716.75;5074220;28;20169;-64
2021/12/09 10:39:53;;;;;;;9.88;4.90;;;;;;;3.79;73.77;98714.94;5076855;28;20039;-65
2021/12/09 10:42:28;;;;;;;21.50;5.60;;;;;;;4.21;72.19;98702.03;5075307;28;20039;-64
2021/12/09 10:45:00;;;;;;;12.90;5.53;;;;;;;4.18;72.44;98699.84;5076664;28;20487;-64
2021/12/09 10:50:31;;;;;;;12.07;4.75;;;;;;;3.98;73.86;98706.59;5073726;28;20353;-64
2021/12/09 10:55:58;;;;;;;12.18;4.70;;;;;;;4.28;73.10;98700.00;5075249;28;20067;-65
2021/12/09 10:58:34;;;;;;;10.10;5.05;;;;;;;3.95;73.23;98699.00;5074975;28;20084;-64
2021/12/09 11:01:04;;;;;;;9.13;5.13;;;;;;;3.82;74.77;98697.47;5075576;28;20055;-65
2021/12/09 11:03:33;;;;;;;11.23;5.43;;;;;;;4.00;73.68;98707.16;5054310;28;20059;-64
2021/12/09 11:06:01;;;;;;;11.80;5.20;;;;;;;4.04;73.83;98700.22;5076346;28;20040;-62
2021/12/09 11:08:30;;;;;;;15.43;7.50;;;;;;;4.27;72.75;98698.34;5075320;28;20025;-61
2021/12/09 11:11:03;;;;;;;11.38;4.80;;;;;;;4.15;73.37;98689.56;5075739;28;20041;-61
2021/12/09 11:13:39;;;;;;;10.88;4.97;;;;;;;4.17;73.67;98682.06;5076490;28;20482;-61
2021/12/09 11:16:05;;;;;;;12.00;5.70;;;;;;;4.31;73.03;98680.59;5074122;28;20050;-61
2021/12/09 11:18:39;;;;;;;14.65;6.35;;;;;;;4.42;72.44;98681.56;5076904;28;20028;-61
2021/12/09 11:21:28;;;;;;;;;;;;;;;4.93;71.33;98677.00;5074241;28;20516;-61
2021/12/09 11:24:08;;;;;;;12.35;4.68;;;;;;;4.69;71.63;98688.09;5075295;28;19923;-61
2021/12/09 11:30:12;;;;;;;13.52;6.55;;;;;;;4.34;72.31;98681.16;5054323;28;20215;-60
2021/12/09 11:32:46;;;;;;;14.57;6.07;;;;;;;4.70;71.63;98683.50;5074966;28;20067;-61
2021/12/09 11:35:18;;;;;;;;;;;;;;;4.74;71.28;98684.63;5075272;28;20391;-63
2021/12/09 11:40:34;;;;;;;20.38;5.30;;;;;;;4.40;71.47;98681.00;5075136;28;20123;-64
2021/12/09 11:43:01;;;;;;;11.93;6.18;;;;;;;4.30;73.25;98681.69;5074517;28;20119;-65
2021/12/09 11:45:47;;;;;;;15.48;6.90;;;;;;;4.43;72.98;98669.69;5057375;28;20036;-64
2021/12/09 11:48:14;;;;;;;10.90;4.45;;;;;;;4.32;73.21;98674.16;5075079;28;20453;-64
2021/12/09 11:50:47;;;;;;;12.70;5.88;;;;;;;4.34;72.88;98667.66;5073223;28;20081;-63
2021/12/09 11:53:15;;;;;;;11.70;5.80;;;;;;;4.42;72.17;98664.53;5075619;28;20033;-63
2021/12/09 11:55:46;;;;;;;13.07;5.22;;;;;;;4.34;72.41;98664.97;5072660;28;20425;-64